This is the latest recevied weather packets stored in our database for station/object CE3SUR-17. If no packets are shown the sender has not sent any weather packets the latest 10 day(s).
| Time | Temp. | Humidity | Pressure | Rain* | Wind** | Luminosity | Snow |
|---|---|---|---|---|---|---|---|
| 1777597119 | 23.89° C | 44% | 958.1 hPa | - | - | - | - |
| 1777595319 | 24.44° C | 43% | 957.6 hPa | - | - | - | - |
| 1777593519 | 25° C | 43% | 957.1 hPa | - | - | - | - |
| 1777591719 | 25.56° C | 43% | 956.6 hPa | - | - | - | - |
| 1777589919 | 26.11° C | 42% | 956.2 hPa | - | - | - | - |
| 1777588118 | 26.67° C | 42% | 955.6 hPa | - | - | - | - |
| 1777586320 | 27.78° C | 42% | 955.2 hPa | - | - | - | - |
| 1777584520 | 28.89° C | 41% | 954.9 hPa | - | - | - | - |
| 1777582720 | 31.11° C | 40% | 954.3 hPa | - | - | - | - |
| 1777580920 | 31.67° C | 40% | 954.1 hPa | - | - | - | - |
| 1777579120 | 31.67° C | 40% | 954 hPa | - | - | - | - |
| 1777577319 | 31.67° C | 40% | 953.9 hPa | - | - | - | - |
| 1777575519 | 31.11° C | 40% | 953.8 hPa | - | - | - | - |
| 1777573719 | 31.11° C | 41% | 953.9 hPa | - | - | - | - |
| 1777571919 | 30.56° C | 41% | 954.1 hPa | - | - | - | - |
| 1777570119 | 29.44° C | 41% | 954.5 hPa | - | - | - | - |
| 1777568380 | 28.89° C | 41% | 954.8 hPa | - | - | - | - |
| 1777568318 | 28.89° C | 41% | 954.8 hPa | - | - | - | - |
| 1777566517 | 28.33° C | 42% | 955 hPa | - | - | - | - |
| 1777564720 | 27.22° C | 42% | 955.2 hPa | - | - | - | - |
| 1777562920 | 26.11° C | 43% | 955.2 hPa | - | - | - | - |
| 1777561120 | 25° C | 43% | 955.2 hPa | - | - | - | - |
| 1777559320 | 23.89° C | 43% | 954.8 hPa | - | - | - | - |
| 1777557519 | 22.78° C | 44% | 954.4 hPa | - | - | - | - |
| 1777555837 | 21.11° C | 44% | 954 hPa | - | - | - | - |
* Rain since midnight (hover to see other rain measurements)
** Current wind speed in m/s (hover to see current wind gust speed)